• Join FlightAware (Why Join?)
  • Login
  • US Flag 
06:57AM EDT


 

Airport Tracker/Info


-or-


 

Live Flight TrackerFlight Track Log ✈ N1250V ✈ 29-May-2014 ✈ KLUK - KMMU

Flight Track Log - Related Links

Times and Time Zones

All times are in EDT time to prevent confusion due to time zone crossing. See the N1250V flight status page for this flight to view local times or setup timezone preferences in your user account.

Time Position Orientation Groundspeed Altitude Reporting Facility
EDT Latitude Longitude Course Direction KTS MPH feet Rate Location/Type
08:40AM 39.0833 -84.4167 159° South 143 165 1,100  Level Cincinnati TRACON
08:40AM 39.0500 -84.4000 159° South 198 228 3,000 2,100 Climbing Cincinnati TRACON
08:41AM 39.0667 -84.3333 72° East 201 231 5,200 2,040 Climbing Cincinnati TRACON
08:42AM 39.0728 -84.2986 77° East 211 243 6,500 1,860 Climbing Indianapolis Center
08:43AM 39.0986 -84.2303 64° Northeast 210 242 8,500 1,980 Climbing Indianapolis Center
08:44AM 39.1222 -84.1606 66° East 210 242 10,600 1,860 Climbing Indianapolis Center
08:45AM 39.1536 -84.0758 64° Northeast 216 249 12,400 1,440 Climbing Indianapolis Center
08:46AM 39.1825 -83.9931 66° East 243 280 13,700 1,380 Climbing Indianapolis Center
08:47AM 39.2142 -83.9058 65° Northeast 261 300 15,300 1,500 Climbing Indianapolis Center
08:48AM 39.2469 -83.8206 64° Northeast 264 304 16,900 1,440 Climbing Indianapolis Center
08:49AM 39.2789 -83.7353 64° Northeast 264 304 18,300 1,260 Climbing Indianapolis Center
08:50AM 39.3119 -83.6481 64° Northeast 268 308 19,600 1,380 Climbing Indianapolis Center
08:51AM 39.3533 -83.5422 63° Northeast 272 313 21,200 1,380 Climbing Indianapolis Center
08:53AM 39.3858 -83.4547 64° Northeast 273 314 22,500 840 Climbing Indianapolis Center
08:54AM 39.4192 -83.3656 64° Northeast 274 315 23,000 240 Climbing Indianapolis Center
08:55AM 39.4558 -83.2644 65° Northeast 301 346 23,000  Level Indianapolis Center
08:56AM 39.4969 -83.1561 64° Northeast 327 376 23,000 540 Level Indianapolis Center
08:57AM 39.5467 -83.0264 64° Northeast 336 387 24,200 1,020 Climbing Indianapolis Center
08:58AM 39.5858 -82.9247 63° Northeast 326 375 25,200 900 Climbing Indianapolis Center
08:59AM 39.6092 -82.8178 74° East 332 382 26,100 1,020 Climbing Indianapolis Center
09:00AM 39.6194 -82.7067 83° East 318 366 27,400 1,140 Climbing Indianapolis Center
09:01AM 39.6278 -82.5992 84° East 308 354 28,500 1,080 Climbing Indianapolis Center
09:02AM 39.6381 -82.4692 84° East 306 352 29,700 960 Climbing Indianapolis Center
09:03AM 39.6467 -82.3633 84° East 303 349 30,500 720 Climbing Indianapolis Center
09:04AM 39.6544 -82.2558 85° East 303 349 31,300 660 Climbing Indianapolis Center
09:05AM 39.6625 -82.1475 84° East 303 349 31,900 480 Climbing Indianapolis Center
09:06AM 39.6714 -82.0333 84° East 306 352 32,400 480 Climbing Indianapolis Center
09:07AM 39.6786 -81.9192 85° East 312 359 33,000 240 Climbing Indianapolis Center
09:08AM 39.6875 -81.8003 84° East 325 374 33,000  Level Indianapolis Center
09:09AM 39.6986 -81.6481 85° East 346 398 33,000  Level Indianapolis Center
09:10AM 39.7083 -81.5219 84° East 360 414 33,000  Level Indianapolis Center
09:11AM 39.7564 -81.3972 63° Northeast 364 419 33,000  Level Indianapolis Center
09:12AM 39.7850 -81.3236 63° Northeast 368 423 33,000  Level Cleveland Center
09:13AM 39.8289 -81.2031 65° Northeast 368 423 33,000  Level Cleveland Center
09:14AM 39.8725 -81.0803 65° Northeast 371 427 33,000  Level Cleveland Center
09:15AM 39.9153 -80.9569 66° East 372 428 33,000  Level Cleveland Center
09:16AM 39.9681 -80.8103 65° Northeast 373 429 33,000  Level Cleveland Center
09:17AM 40.0108 -80.6878 65° Northeast 373 429 33,000  Level Cleveland Center
09:18AM 40.0539 -80.5664 65° Northeast 373 429 33,000  Level Cleveland Center
09:19AM 40.0956 -80.4453 66° East 369 425 33,000  Level Cleveland Center
09:20AM 40.1378 -80.3247 65° Northeast 369 425 33,000  Level Cleveland Center
09:21AM 40.1875 -80.1808 66° East 369 425 33,000  Level Cleveland Center
09:22AM 40.2275 -80.0611 66° East 368 423 33,000  Level Cleveland Center
09:23AM 40.2689 -79.9428 65° Northeast 366 421 33,000  Level Cleveland Center
09:24AM 40.3097 -79.8236 66° East 365 420 33,000  Level Cleveland Center
09:25AM 40.3586 -79.6800 66° East 364 419 33,000  Level Cleveland Center
09:26AM 40.3994 -79.5600 66° East 364 419 33,000  Level Cleveland Center
09:27AM 40.4403 -79.4383 66° East 364 419 33,000  Level Cleveland Center
09:28AM 40.4811 -79.3183 66° East 365 420 33,000  Level Cleveland Center
09:29AM 40.5242 -79.1892 66° East 364 419 33,000  Level Cleveland Center
09:30AM 40.5639 -79.0694 66° East 364 419 33,000  Level Cleveland Center
09:31AM 40.6119 -78.9247 66° East 364 419 33,000  Level Cleveland Center
09:32AM 40.6517 -78.8042 66° East 364 419 33,000  Level Cleveland Center
09:34AM 40.6911 -78.6836 67° East 364 419 33,000  Level Cleveland Center
09:35AM 40.7306 -78.5631 67° East 364 419 33,000  Level Cleveland Center
09:36AM 40.7694 -78.4439 67° East 364 419 33,000  Level Cleveland Center
09:37AM 40.8169 -78.2989 67° East 364 419 33,000  Level Cleveland Center
09:38AM 40.8556 -78.1756 67° East 365 420 33,000  Level Cleveland Center
09:39AM 40.8958 -78.0533 66° East 365 420 33,000  Level Cleveland Center
09:40AM 40.9403 -77.9350 64° Northeast 364 419 33,000  Level Cleveland Center
09:41AM 41.0014 -77.7986 59° Northeast 364 419 33,000  Level Cleveland Center
09:42AM 41.0358 -77.6747 70° East 364 419 33,000  Level Cleveland Center
09:43AM 41.0528 -77.5394 81° East 375 432 33,000  Level Cleveland Center
09:44AM 41.0689 -77.4069 81° East 371 427 33,000  Level Cleveland Center
09:45AM 41.0811 -77.3061 81° East 367 422 33,000 -60 Level New York Center
09:46AM 41.0967 -77.1728 81° East 367 422 32,900 -900 Descending New York Center
09:47AM 41.1147 -77.0283 81° East 375 432 31,300 -1,500 Descending New York Center
09:48AM 41.1456 -76.8797 75° East 397 457 30,000 -1,440 Descending New York Center
09:49AM 41.1939 -76.7461 64° Northeast 397 457 28,400 -1,620 Descending New York Center
09:50AM 41.2422 -76.6125 64° Northeast 402 463 26,800 -1,440 Descending New York Center
09:51AM 41.2556 -76.4700 83° East 389 448 25,600 -1,440 Descending New York Center
09:52AM 41.2581 -76.3267 89° East 389 448 23,900 -1,680 Descending New York Center
09:53AM 41.2628 -76.1836 87° East 384 442 22,200 -1,740 Descending New York Center
09:54AM 41.2644 -76.0483 89° East 378 435 20,500 -1,680 Descending New York Center
09:55AM 41.2681 -75.9189 88° East 365 420 18,900 -1,260 Descending New York Center
09:56AM 41.2692 -75.7975 89° East 346 398 18,000 -600 Descending New York Center
09:57AM 41.2719 -75.6819 88° East 341 392 17,800 -1,140 Descending New York Center
09:58AM 41.2292 -75.5572 114° Southeast 328 377 15,800 -2,040 Descending New York Center
09:59AM 41.1919 -75.4500 115° Southeast 328 377 13,800 -2,100 Descending New York Center
10:00AM 41.1586 -75.3428 112° Southeast 314 361 11,600 -2,100 Descending New York Center
10:01AM 41.1286 -75.2528 114° Southeast 303 349 9,600 -1,980 Descending New York Center
10:02AM 41.0947 -75.1542 114° Southeast 303 349 7,600 -1,800 Descending New York Center
10:03AM 41.0611 -75.0528 114° Southeast 282 325 6,100 -780 Descending New York Center
10:04AM 41.0289 -74.9600 115° Southeast 277 319 6,100 -60 Level New York Center
10:05AM 40.9967 -74.8700 115° Southeast 272 313 6,000 -360 Descending New York Center
10:06AM 40.9853 -74.7761 99° East 255 293 5,500 -720 Descending New York Center
10:07AM 40.9906 -74.6856 86° East 255 293 4,600 -780 Descending New York Center
10:08AM 41.0117 -74.6097 70° East 228 262 4,000 -420 Descending New York Center
10:09AM 40.9736 -74.5636 138° Southeast 174 200 3,800 -480 Descending New York Center
10:10AM 40.9150 -74.5769 190° South 170 196 3,100 -420 Descending New York Center
10:11AM 40.8647 -74.5850 187° South 191 220 3,000 -60 Descending New York Center
10:12AM 40.8181 -74.6097 202° Southwest 186 214 3,000  Level New York Center
10:13AM 40.7775 -74.6378 208° Southwest 186 214 3,000 -300 Level New York Center
10:14AM 40.7308 -74.6653 204° Southwest 180 207 2,500 -420 Descending New York Center
10:15AM 40.6900 -74.6383 153° Southeast 160 184 2,200 -240 Descending New York Center
10:16AM 40.6794 -74.5803 103° East 147 169 2,100 -180 Descending New York Center
10:18AM 40.7333 -74.4833 54° Northeast 150 173 1,800 -300 Descending New York TRACON
10:19AM 40.7500 -74.4500 57° Northeast 128 147 1,300 -600 Descending New York TRACON
10:20AM 40.7833 -74.4333 21° North 120 138 700 -600 Descending New York TRACON
10:22AM 40.7833 -74.4000 85° East  Level FlightAware Approximate